Terminal Aerodrome Forecast
Issued by NWS Boston, MA

Home | Current Version | Previous Version | Text Only | Print | Product List | Glossary On
Versions: 1 2 3 4 5 6 7 8 9 10 11 12 13 14 15 16 17 18 19 20 21 22 23 24 25 26 27 28 29 30 31 32 33 34 35 36 37 38 39 40 41 42 43 44 45 46 47 48 49 50
000
FTUS41 KBOX 121400 AAA
TAFBDL
TAF AMD
KBDL 121400Z 1214/1318 00000KT 6SM -FZRAPL BR OVC028
     FM121500 00000KT 6SM -RA OVC025
     FM121800 17006KT 2SM -RA BR OVC015
     FM122200 22006KT 3SM BR VCSH OVC015
     FM130100 26007KT P6SM BKN025
     FM130500 29007KT P6SM BKN035
     FM131100 27009KT P6SM BKN040
     FM131700 28014G24KT P6SM BKN040=

USA.gov is the U.S. government's official web portal to all federal, state and local government web resources and services.